This is the latest recevied weather packets stored in our database for station/object W4GAP. If no packets are shown the sender has not sent any weather packets the latest 10 day(s).
| Time | Temp. | Humidity | Pressure | Rain* | Wind** | Luminosity | Snow |
|---|---|---|---|---|---|---|---|
| 1778008104 | 25.56° C | 39% | 1011.7 hPa | 0 mm | - | 170 W/m² | - |
| 1778007799 | 25.56° C | 39% | 1011.9 hPa | 0 mm | - | 122 W/m² | - |
| 1778007495 | 26.11° C | 37% | 1011.7 hPa | 0 mm | - | 240 W/m² | - |
| 1778007192 | 26.11° C | 37% | 1011.8 hPa | 0 mm | - | 144 W/m² | - |
| 1778006888 | 25.56° C | 38% | 1012.1 hPa | 0 mm | - | 658 W/m² | - |
| 1778006585 | 25° C | 40% | 1012.2 hPa | 0 mm | - | 588 W/m² | - |
| 1778006282 | 25.56° C | 39% | 1012.3 hPa | 0 mm | - | 409 W/m² | - |
| 1778005979 | 26.11° C | 38% | 1012.1 hPa | 0 mm | - | 411 W/m² | - |
| 1778005676 | 26.11° C | 39% | 1012.3 hPa | 0 mm | - | 638 W/m² | - |
| 1778005372 | 26.11° C | 39% | 1012.4 hPa | 0 mm | - | 560 W/m² | - |
| 1778005069 | 26.67° C | 38% | 1012.3 hPa | 0 mm | - | 662 W/m² | - |
| 1778004766 | 26.11° C | 39% | 1012.3 hPa | 0 mm | - | 716 W/m² | - |
| 1778004463 | 26.11° C | 38% | 1012.6 hPa | 0 mm | - | 712 W/m² | - |
| 1778004159 | 25.56° C | 39% | 1012.5 hPa | 0 mm | - | 440 W/m² | - |
| 1778003856 | 25.56° C | 41% | 1013 hPa | 0 mm | - | 562 W/m² | - |
| 1778003552 | 25.56° C | 42% | 1012.7 hPa | 0 mm | - | 196 W/m² | - |
| 1778003249 | 25.56° C | 41% | 1012.7 hPa | 0 mm | - | 184 W/m² | - |
| 1778002946 | 25.56° C | 42% | 1013 hPa | 0 mm | - | 117 W/m² | - |
| 1778002642 | 25° C | 43% | 1013.1 hPa | 0 mm | - | 188 W/m² | - |
| 1778002339 | 25.56° C | 42% | 1012.9 hPa | 0 mm | - | 73 W/m² | - |
| 1778002036 | 26.67° C | 40% | 1013.1 hPa | 0 mm | - | 78 W/m² | - |
| 1778001733 | 26.11° C | 42% | 1012.9 hPa | 0 mm | - | 121 W/m² | - |
| 1778001433 | 26.11° C | 39% | 1013.1 hPa | 0 mm | - | 205 W/m² | - |
| 1778001130 | 26.11° C | 40% | 1013.1 hPa | 0 mm | - | 751 W/m² | - |
| 1778000827 | 26.11° C | 40% | 1013 hPa | 0 mm | - | 747 W/m² | - |
* Rain latest hour (hover to see other rain measurements)
** Current wind speed in m/s (hover to see current wind gust speed)